This is the latest recevied weather packets stored in our database for station/object SQ9MHX-13. If no packets are shown the sender has not sent any weather packets the latest 1 day(s).
| Time | Temp. | Humidity | Pressure | Rain* | Wind** | Luminosity | Snow |
|---|---|---|---|---|---|---|---|
| 1778059670 | 22.78° C | 48% | 944.1 hPa | - | 0 m/s | - | - |
| 1778058174 | 22.22° C | 49% | 945 hPa | - | 0 m/s | - | - |
| 1778057875 | 22.22° C | 48% | 944.2 hPa | - | 0 m/s | - | - |
| 1778057277 | 22.22° C | 47% | 944.3 hPa | - | 0 m/s | - | - |
| 1778055781 | 22.22° C | 47% | 945.2 hPa | - | 0 m/s | - | - |
| 1778055482 | 21.11° C | 48% | 945.5 hPa | - | 0 m/s | - | - |
| 1778055183 | 21.11° C | 48% | 945.3 hPa | - | 0 m/s | - | - |
| 1778053388 | 21.11° C | 46% | 946.1 hPa | - | 0 m/s | - | - |
| 1778053089 | 21.11° C | 46% | 945.6 hPa | - | 0 m/s | - | - |
| 1778052790 | 21.11° C | 46% | 945.4 hPa | - | 0 m/s | - | - |
| 1778052491 | 21.11° C | 46% | 944.8 hPa | - | 0 m/s | - | - |
| 1778050397 | 21.11° C | 46% | 945.6 hPa | - | 0 m/s | - | - |
| 1778049799 | 20° C | 49% | 946.2 hPa | - | 0 m/s | - | - |
| 1778049500 | 21.11° C | 49% | 946.5 hPa | - | 0 m/s | - | - |
| 1778049201 | 20° C | 51% | 946.7 hPa | - | 0 m/s | - | - |
| 1778048902 | 20° C | 49% | 946.8 hPa | - | 0 m/s | - | - |
| 1778048603 | 20° C | 50% | 946.8 hPa | - | 0 m/s | - | - |
| 1778048005 | 20° C | 48% | 947.5 hPa | - | 0 m/s | - | - |
| 1778047706 | 18.89° C | 49% | 947.9 hPa | - | 0 m/s | - | - |
| 1778047407 | 18.89° C | 50% | 948.4 hPa | - | 0 m/s | - | - |
| 1778047108 | 18.89° C | 49% | 948.5 hPa | - | 0 m/s | - | - |
| 1778046809 | 18.89° C | 49% | 949 hPa | - | 0 m/s | - | - |
| 1778046510 | 17.78° C | 51% | 949.5 hPa | - | 0 m/s | - | - |
| 1778045016 | 16.11° C | 56% | 955 hPa | - | 0 m/s | - | - |
| 1778043224 | 15° C | 55% | 956.2 hPa | - | 0 m/s | - | - |
* Rain since midnight (hover to see other rain measurements)
** Current wind speed in m/s (hover to see current wind gust speed)